sensor_id;sensor_type;location;lat;lon;timestamp;P1;durP1;ratioP1;P2;durP2;ratioP2
3659;SDS011;1846;51.482;7.224;2023-04-01T00:01:09;4.57;;;1.90;;
3659;SDS011;1846;51.482;7.224;2023-04-01T00:03:38;6.80;;;1.30;;
3659;SDS011;1846;51.482;7.224;2023-04-01T00:06:06;3.45;;;1.30;;
3659;SDS011;1846;51.482;7.224;2023-04-01T00:08:33;4.45;;;1.30;;
3659;SDS011;1846;51.482;7.224;2023-04-01T00:11:01;4.00;;;1.45;;
3659;SDS011;1846;51.482;7.224;2023-04-01T00:13:28;5.60;;;1.90;;
3659;SDS011;1846;51.482;7.224;2023-04-01T00:15:58;2.40;;;1.20;;
3659;SDS011;1846;51.482;7.224;2023-04-01T00:18:26;3.17;;;1.53;;
3659;SDS011;1846;51.482;7.224;2023-04-01T00:20:56;5.63;;;2.00;;
3659;SDS011;1846;51.482;7.224;2023-04-01T00:23:23;4.72;;;1.70;;
3659;SDS011;1846;51.482;7.224;2023-04-01T00:25:50;4.65;;;1.40;;
3659;SDS011;1846;51.482;7.224;2023-04-01T00:28:18;2.05;;;1.15;;
3659;SDS011;1846;51.482;7.224;2023-04-01T00:30:46;2.50;;;1.10;;
3659;SDS011;1846;51.482;7.224;2023-04-01T00:33:13;3.30;;;1.58;;
3659;SDS011;1846;51.482;7.224;2023-04-01T00:35:41;7.80;;;1.30;;
3659;SDS011;1846;51.482;7.224;2023-04-01T00:38:08;3.40;;;1.55;;
3659;SDS011;1846;51.482;7.224;2023-04-01T00:40:37;3.05;;;1.30;;
3659;SDS011;1846;51.482;7.224;2023-04-01T00:43:09;3.03;;;1.38;;
3659;SDS011;1846;51.482;7.224;2023-04-01T00:45:40;1.70;;;1.00;;
3659;SDS011;1846;51.482;7.224;2023-04-01T00:48:10;3.47;;;1.20;;
3659;SDS011;1846;51.482;7.224;2023-04-01T00:50:39;2.78;;;1.55;;
3659;SDS011;1846;51.482;7.224;2023-04-01T00:53:12;2.88;;;2.38;;
3659;SDS011;1846;51.482;7.224;2023-04-01T00:55:47;3.17;;;1.40;;
3659;SDS011;1846;51.482;7.224;2023-04-01T00:58:18;3.25;;;1.73;;
3659;SDS011;1846;51.482;7.224;2023-04-01T01:00:49;1.90;;;1.70;;
3659;SDS011;1846;51.482;7.224;2023-04-01T01:03:17;4.43;;;1.60;;
3659;SDS011;1846;51.482;7.224;2023-04-01T01:05:58;3.90;;;1.92;;
3659;SDS011;1846;51.482;7.224;2023-04-01T01:08:39;3.47;;;1.77;;
3659;SDS011;1846;51.482;7.224;2023-04-01T01:11:25;3.15;;;1.38;;
3659;SDS011;1846;51.482;7.224;2023-04-01T01:13:58;3.60;;;1.60;;
3659;SDS011;1846;51.482;7.224;2023-04-01T01:16:39;2.63;;;1.60;;
3659;SDS011;1846;51.482;7.224;2023-04-01T01:19:11;2.30;;;1.48;;
3659;SDS011;1846;51.482;7.224;2023-04-01T01:24:50;1.58;;;1.27;;
3659;SDS011;1846;51.482;7.224;2023-04-01T01:27:26;2.15;;;1.60;;
3659;SDS011;1846;51.482;7.224;2023-04-01T01:30:06;5.93;;;1.47;;
3659;SDS011;1846;51.482;7.224;2023-04-01T01:32:58;1.77;;;1.40;;
3659;SDS011;1846;51.482;7.224;2023-04-01T01:35:35;3.13;;;1.50;;
3659;SDS011;1846;51.482;7.224;2023-04-01T01:38:05;2.53;;;1.50;;
3659;SDS011;1846;51.482;7.224;2023-04-01T01:40:35;3.38;;;1.83;;
3659;SDS011;1846;51.482;7.224;2023-04-01T01:43:06;1.50;;;1.40;;
3659;SDS011;1846;51.482;7.224;2023-04-01T01:45:36;2.80;;;1.50;;
3659;SDS011;1846;51.482;7.224;2023-04-01T01:48:07;1.30;;;1.20;;
3659;SDS011;1846;51.482;7.224;2023-04-01T01:50:36;3.20;;;1.52;;
3659;SDS011;1846;51.482;7.224;2023-04-01T01:53:06;2.38;;;1.55;;
3659;SDS011;1846;51.482;7.224;2023-04-01T01:55:35;2.30;;;1.20;;
3659;SDS011;1846;51.482;7.224;2023-04-01T01:58:04;2.50;;;1.70;;
3659;SDS011;1846;51.482;7.224;2023-04-01T02:00:35;2.70;;;1.20;;
3659;SDS011;1846;51.482;7.224;2023-04-01T02:03:02;2.15;;;1.20;;
3659;SDS011;1846;51.482;7.224;2023-04-01T02:05:32;3.80;;;1.30;;
3659;SDS011;1846;51.482;7.224;2023-04-01T02:08:02;2.50;;;1.30;;
3659;SDS011;1846;51.482;7.224;2023-04-01T02:10:34;5.00;;;1.40;;
3659;SDS011;1846;51.482;7.224;2023-04-01T02:13:05;1.30;;;1.20;;
3659;SDS011;1846;51.482;7.224;2023-04-01T02:15:37;2.50;;;1.10;;
3659;SDS011;1846;51.482;7.224;2023-04-01T02:18:13;3.28;;;1.10;;
3659;SDS011;1846;51.482;7.224;2023-04-01T02:20:41;2.90;;;1.20;;
3659;SDS011;1846;51.482;7.224;2023-04-01T02:23:11;2.28;;;1.20;;
3659;SDS011;1846;51.482;7.224;2023-04-01T02:25:39;1.20;;;1.10;;
3659;SDS011;1846;51.482;7.224;2023-04-01T02:28:08;2.90;;;1.13;;
3659;SDS011;1846;51.482;7.224;2023-04-01T02:30:38;1.70;;;1.30;;
3659;SDS011;1846;51.482;7.224;2023-04-01T02:33:07;2.78;;;1.13;;
3659;SDS011;1846;51.482;7.224;2023-04-01T02:35:35;1.67;;;0.90;;
3659;SDS011;1846;51.482;7.224;2023-04-01T02:38:03;1.80;;;0.80;;
3659;SDS011;1846;51.482;7.224;2023-04-01T02:40:41;2.70;;;0.93;;
3659;SDS011;1846;51.482;7.224;2023-04-01T02:43:10;2.40;;;0.90;;
3659;SDS011;1846;51.482;7.224;2023-04-01T02:45:37;3.17;;;1.30;;
3659;SDS011;1846;51.482;7.224;2023-04-01T02:48:04;1.88;;;1.40;;
3659;SDS011;1846;51.482;7.224;2023-04-01T02:50:32;1.20;;;1.10;;
3659;SDS011;1846;51.482;7.224;2023-04-01T02:52:59;2.20;;;0.95;;
3659;SDS011;1846;51.482;7.224;2023-04-01T02:55:28;4.00;;;1.10;;
3659;SDS011;1846;51.482;7.224;2023-04-01T02:57:56;3.95;;;1.10;;
3659;SDS011;1846;51.482;7.224;2023-04-01T03:00:23;1.73;;;0.90;;
3659;SDS011;1846;51.482;7.224;2023-04-01T03:02:51;1.40;;;1.00;;
3659;SDS011;1846;51.482;7.224;2023-04-01T03:05:18;1.73;;;0.90;;
3659;SDS011;1846;51.482;7.224;2023-04-01T03:07:44;1.40;;;1.00;;
3659;SDS011;1846;51.482;7.224;2023-04-01T03:10:12;1.13;;;1.02;;
3659;SDS011;1846;51.482;7.224;2023-04-01T03:12:39;2.60;;;0.80;;
3659;SDS011;1846;51.482;7.224;2023-04-01T03:15:08;1.00;;;0.70;;
3659;SDS011;1846;51.482;7.224;2023-04-01T03:17:37;1.20;;;0.88;;
3659;SDS011;1846;51.482;7.224;2023-04-01T03:20:04;2.70;;;1.00;;
3659;SDS011;1846;51.482;7.224;2023-04-01T03:22:33;2.90;;;1.40;;
3659;SDS011;1846;51.482;7.224;2023-04-01T03:25:00;2.10;;;1.13;;
3659;SDS011;1846;51.482;7.224;2023-04-01T03:27:27;2.60;;;0.90;;
3659;SDS011;1846;51.482;7.224;2023-04-01T03:29:54;2.42;;;0.90;;
3659;SDS011;1846;51.482;7.224;2023-04-01T03:32:22;3.30;;;1.15;;
3659;SDS011;1846;51.482;7.224;2023-04-01T03:34:49;4.00;;;1.20;;
3659;SDS011;1846;51.482;7.224;2023-04-01T03:37:16;1.40;;;0.80;;
3659;SDS011;1846;51.482;7.224;2023-04-01T03:39:43;1.90;;;0.95;;
3659;SDS011;1846;51.482;7.224;2023-04-01T03:42:10;1.10;;;1.00;;
3659;SDS011;1846;51.482;7.224;2023-04-01T03:44:37;1.20;;;0.90;;
3659;SDS011;1846;51.482;7.224;2023-04-01T03:47:04;1.50;;;0.90;;
3659;SDS011;1846;51.482;7.224;2023-04-01T03:49:32;1.02;;;0.90;;
3659;SDS011;1846;51.482;7.224;2023-04-01T03:51:59;2.10;;;1.10;;
3659;SDS011;1846;51.482;7.224;2023-04-01T03:54:26;3.22;;;0.90;;
3659;SDS011;1846;51.482;7.224;2023-04-01T03:56:53;1.08;;;0.90;;
3659;SDS011;1846;51.482;7.224;2023-04-01T03:59:22;1.25;;;1.00;;
3659;SDS011;1846;51.482;7.224;2023-04-01T04:01:49;3.17;;;1.20;;
3659;SDS011;1846;51.482;7.224;2023-04-01T04:04:16;1.65;;;0.80;;
3659;SDS011;1846;51.482;7.224;2023-04-01T04:06:45;2.60;;;0.80;;
3659;SDS011;1846;51.482;7.224;2023-04-01T04:09:11;1.90;;;0.80;;
3659;SDS011;1846;51.482;7.224;2023-04-01T04:11:38;4.00;;;1.00;;
3659;SDS011;1846;51.482;7.224;2023-04-01T04:14:05;1.50;;;0.90;;
3659;SDS011;1846;51.482;7.224;2023-04-01T04:16:34;1.40;;;1.00;;
3659;SDS011;1846;51.482;7.224;2023-04-01T04:19:02;1.10;;;0.90;;
3659;SDS011;1846;51.482;7.224;2023-04-01T04:21:29;2.00;;;0.93;;
3659;SDS011;1846;51.482;7.224;2023-04-01T04:23:58;1.10;;;1.00;;
3659;SDS011;1846;51.482;7.224;2023-04-01T04:26:25;1.40;;;0.80;;
3659;SDS011;1846;51.482;7.224;2023-04-01T04:28:53;4.40;;;1.10;;
3659;SDS011;1846;51.482;7.224;2023-04-01T04:31:20;2.10;;;1.30;;
3659;SDS011;1846;51.482;7.224;2023-04-01T04:33:48;1.90;;;1.10;;
3659;SDS011;1846;51.482;7.224;2023-04-01T04:36:16;2.00;;;1.20;;
3659;SDS011;1846;51.482;7.224;2023-04-01T04:38:43;1.30;;;1.20;;
3659;SDS011;1846;51.482;7.224;2023-04-01T04:41:11;1.40;;;1.00;;
3659;SDS011;1846;51.482;7.224;2023-04-01T04:43:39;1.52;;;1.08;;
3659;SDS011;1846;51.482;7.224;2023-04-01T04:46:07;1.33;;;1.00;;
3659;SDS011;1846;51.482;7.224;2023-04-01T04:48:37;1.52;;;1.20;;
3659;SDS011;1846;51.482;7.224;2023-04-01T04:51:04;1.52;;;1.10;;
3659;SDS011;1846;51.482;7.224;2023-04-01T04:53:30;1.77;;;1.20;;
3659;SDS011;1846;51.482;7.224;2023-04-01T04:55:57;1.40;;;0.90;;
3659;SDS011;1846;51.482;7.224;2023-04-01T04:58:26;1.00;;;0.90;;
3659;SDS011;1846;51.482;7.224;2023-04-01T05:00:53;1.20;;;1.10;;
3659;SDS011;1846;51.482;7.224;2023-04-01T05:03:20;2.03;;;1.73;;
3659;SDS011;1846;51.482;7.224;2023-04-01T05:05:50;1.13;;;1.00;;
3659;SDS011;1846;51.482;7.224;2023-04-01T05:08:18;1.00;;;0.90;;
3659;SDS011;1846;51.482;7.224;2023-04-01T05:10:45;2.72;;;1.17;;
3659;SDS011;1846;51.482;7.224;2023-04-01T05:13:13;1.00;;;0.90;;
3659;SDS011;1846;51.482;7.224;2023-04-01T05:15:41;2.00;;;0.90;;
3659;SDS011;1846;51.482;7.224;2023-04-01T05:18:08;1.10;;;0.80;;
3659;SDS011;1846;51.482;7.224;2023-04-01T05:20:35;2.25;;;1.10;;
3659;SDS011;1846;51.482;7.224;2023-04-01T05:23:02;2.20;;;1.00;;
3659;SDS011;1846;51.482;7.224;2023-04-01T05:25:29;2.00;;;0.93;;
3659;SDS011;1846;51.482;7.224;2023-04-01T05:27:55;2.70;;;1.10;;
3659;SDS011;1846;51.482;7.224;2023-04-01T05:30:22;1.40;;;1.10;;
3659;SDS011;1846;51.482;7.224;2023-04-01T05:32:51;1.00;;;0.90;;
3659;SDS011;1846;51.482;7.224;2023-04-01T05:35:17;1.50;;;1.02;;
3659;SDS011;1846;51.482;7.224;2023-04-01T05:37:44;1.20;;;1.00;;
3659;SDS011;1846;51.482;7.224;2023-04-01T05:40:11;1.27;;;1.08;;
3659;SDS011;1846;51.482;7.224;2023-04-01T05:42:38;2.60;;;1.33;;
3659;SDS011;1846;51.482;7.224;2023-04-01T05:45:05;1.25;;;1.15;;
3659;SDS011;1846;51.482;7.224;2023-04-01T05:47:33;1.30;;;1.20;;
3659;SDS011;1846;51.482;7.224;2023-04-01T05:50:02;1.40;;;1.10;;
3659;SDS011;1846;51.482;7.224;2023-04-01T05:52:29;1.60;;;1.10;;
3659;SDS011;1846;51.482;7.224;2023-04-01T05:54:56;1.30;;;1.20;;
3659;SDS011;1846;51.482;7.224;2023-04-01T05:57:23;1.40;;;1.30;;
3659;SDS011;1846;51.482;7.224;2023-04-01T05:59:50;2.58;;;1.40;;
3659;SDS011;1846;51.482;7.224;2023-04-01T06:02:17;2.00;;;1.80;;
3659;SDS011;1846;51.482;7.224;2023-04-01T06:04:44;2.10;;;1.40;;
3659;SDS011;1846;51.482;7.224;2023-04-01T06:07:13;1.30;;;1.20;;
3659;SDS011;1846;51.482;7.224;2023-04-01T06:09:40;1.30;;;1.20;;
3659;SDS011;1846;51.482;7.224;2023-04-01T06:12:19;1.80;;;1.42;;
3659;SDS011;1846;51.482;7.224;2023-04-01T06:15:02;2.05;;;1.30;;
3659;SDS011;1846;51.482;7.224;2023-04-01T06:17:46;1.50;;;1.40;;
3659;SDS011;1846;51.482;7.224;2023-04-01T06:20:24;1.40;;;1.30;;
3659;SDS011;1846;51.482;7.224;2023-04-01T06:23:04;1.60;;;1.40;;
3659;SDS011;1846;51.482;7.224;2023-04-01T06:25:49;2.80;;;1.60;;
3659;SDS011;1846;51.482;7.224;2023-04-01T06:34:49;2.75;;;1.40;;
3659;SDS011;1846;51.482;7.224;2023-04-01T06:37:34;2.75;;;1.40;;
3659;SDS011;1846;51.482;7.224;2023-04-01T06:40:23;2.40;;;1.50;;
3659;SDS011;1846;51.482;7.224;2023-04-01T06:43:13;1.77;;;1.67;;
3659;SDS011;1846;51.482;7.224;2023-04-01T06:45:48;1.60;;;1.50;;
3659;SDS011;1846;51.482;7.224;2023-04-01T06:48:29;2.30;;;1.70;;
3659;SDS011;1846;51.482;7.224;2023-04-01T06:51:08;2.30;;;1.50;;
3659;SDS011;1846;51.482;7.224;2023-04-01T06:53:46;1.45;;;1.35;;
3659;SDS011;1846;51.482;7.224;2023-04-01T06:56:22;1.70;;;1.60;;
3659;SDS011;1846;51.482;7.224;2023-04-01T06:58:53;1.60;;;1.40;;
3659;SDS011;1846;51.482;7.224;2023-04-01T07:01:24;1.90;;;1.80;;
3659;SDS011;1846;51.482;7.224;2023-04-01T07:03:55;2.03;;;1.83;;
3659;SDS011;1846;51.482;7.224;2023-04-01T07:06:26;1.70;;;1.60;;
3659;SDS011;1846;51.482;7.224;2023-04-01T07:08:57;2.80;;;1.80;;
3659;SDS011;1846;51.482;7.224;2023-04-01T07:11:30;2.13;;;1.50;;
3659;SDS011;1846;51.482;7.224;2023-04-01T07:14:01;1.73;;;1.63;;
3659;SDS011;1846;51.482;7.224;2023-04-01T07:16:34;1.90;;;1.80;;
3659;SDS011;1846;51.482;7.224;2023-04-01T07:19:06;3.28;;;2.30;;
3659;SDS011;1846;51.482;7.224;2023-04-01T07:21:39;2.40;;;2.10;;
3659;SDS011;1846;51.482;7.224;2023-04-01T07:24:11;1.90;;;1.80;;
3659;SDS011;1846;51.482;7.224;2023-04-01T07:26:44;2.10;;;2.00;;
3659;SDS011;1846;51.482;7.224;2023-04-01T07:29:12;3.92;;;2.08;;
3659;SDS011;1846;51.482;7.224;2023-04-01T07:31:45;2.00;;;1.90;;
3659;SDS011;1846;51.482;7.224;2023-04-01T07:34:19;1.50;;;1.40;;
3659;SDS011;1846;51.482;7.224;2023-04-01T07:36:52;1.60;;;1.50;;
3659;SDS011;1846;51.482;7.224;2023-04-01T07:39:29;2.10;;;2.00;;
3659;SDS011;1846;51.482;7.224;2023-04-01T07:42:06;2.33;;;2.22;;
3659;SDS011;1846;51.482;7.224;2023-04-01T07:44:43;1.90;;;1.80;;
3659;SDS011;1846;51.482;7.224;2023-04-01T07:47:20;2.10;;;1.90;;
3659;SDS011;1846;51.482;7.224;2023-04-01T07:50:01;1.80;;;1.70;;
3659;SDS011;1846;51.482;7.224;2023-04-01T07:52:35;1.60;;;1.50;;
3659;SDS011;1846;51.482;7.224;2023-04-01T07:55:11;2.50;;;1.60;;
3659;SDS011;1846;51.482;7.224;2023-04-01T07:57:46;2.10;;;1.90;;
3659;SDS011;1846;51.482;7.224;2023-04-01T08:00:19;2.10;;;1.90;;
3659;SDS011;1846;51.482;7.224;2023-04-01T08:02:54;2.40;;;2.00;;
3659;SDS011;1846;51.482;7.224;2023-04-01T08:05:33;1.90;;;1.80;;
3659;SDS011;1846;51.482;7.224;2023-04-01T08:08:11;2.30;;;2.20;;
3659;SDS011;1846;51.482;7.224;2023-04-01T08:10:45;4.20;;;1.63;;
3659;SDS011;1846;51.482;7.224;2023-04-01T08:13:20;1.90;;;1.70;;
3659;SDS011;1846;51.482;7.224;2023-04-01T08:15:57;2.67;;;1.80;;
3659;SDS011;1846;51.482;7.224;2023-04-01T08:18:34;2.10;;;2.00;;
3659;SDS011;1846;51.482;7.224;2023-04-01T08:21:10;2.00;;;1.90;;
3659;SDS011;1846;51.482;7.224;2023-04-01T08:23:41;1.83;;;1.73;;
3659;SDS011;1846;51.482;7.224;2023-04-01T08:26:13;1.90;;;1.80;;
3659;SDS011;1846;51.482;7.224;2023-04-01T08:28:47;2.30;;;2.20;;
3659;SDS011;1846;51.482;7.224;2023-04-01T08:31:18;3.40;;;2.40;;
3659;SDS011;1846;51.482;7.224;2023-04-01T08:33:53;3.10;;;2.90;;
3659;SDS011;1846;51.482;7.224;2023-04-01T08:36:22;3.20;;;3.00;;
3659;SDS011;1846;51.482;7.224;2023-04-01T08:38:53;6.00;;;3.47;;
3659;SDS011;1846;51.482;7.224;2023-04-01T08:41:30;3.60;;;3.30;;
3659;SDS011;1846;51.482;7.224;2023-04-01T08:44:20;3.70;;;3.40;;
3659;SDS011;1846;51.482;7.224;2023-04-01T08:53:31;4.18;;;3.78;;
3659;SDS011;1846;51.482;7.224;2023-04-01T08:56:12;4.55;;;4.15;;
3659;SDS011;1846;51.482;7.224;2023-04-01T09:01:49;5.30;;;4.85;;
3659;SDS011;1846;51.482;7.224;2023-04-01T09:04:31;5.50;;;5.00;;
3659;SDS011;1846;51.482;7.224;2023-04-01T09:07:16;4.60;;;4.20;;
3659;SDS011;1846;51.482;7.224;2023-04-01T09:10:00;7.07;;;6.30;;
3659;SDS011;1846;51.482;7.224;2023-04-01T09:12:44;9.57;;;5.65;;
3659;SDS011;1846;51.482;7.224;2023-04-01T09:15:32;7.28;;;6.30;;
3659;SDS011;1846;51.482;7.224;2023-04-01T09:24:31;8.05;;;6.78;;
3659;SDS011;1846;51.482;7.224;2023-04-01T09:27:10;7.40;;;6.75;;
3659;SDS011;1846;51.482;7.224;2023-04-01T09:30:03;7.70;;;7.00;;
3659;SDS011;1846;51.482;7.224;2023-04-01T09:35:59;8.43;;;7.53;;
3659;SDS011;1846;51.482;7.224;2023-04-01T09:38:36;7.70;;;7.00;;
3659;SDS011;1846;51.482;7.224;2023-04-01T09:41:14;10.02;;;8.32;;
3659;SDS011;1846;51.482;7.224;2023-04-01T09:43:58;8.90;;;8.00;;
3659;SDS011;1846;51.482;7.224;2023-04-01T09:46:31;10.15;;;9.13;;
3659;SDS011;1846;51.482;7.224;2023-04-01T09:49:21;10.02;;;8.13;;
3659;SDS011;1846;51.482;7.224;2023-04-01T09:52:13;10.20;;;9.20;;
3659;SDS011;1846;51.482;7.224;2023-04-01T09:54:54;11.23;;;9.52;;
3659;SDS011;1846;51.482;7.224;2023-04-01T09:57:39;10.80;;;9.70;;
3659;SDS011;1846;51.482;7.224;2023-04-01T10:00:39;12.85;;;10.20;;
3659;SDS011;1846;51.482;7.224;2023-04-01T10:03:32;12.38;;;10.80;;
3659;SDS011;1846;51.482;7.224;2023-04-01T10:12:47;12.15;;;10.15;;
3659;SDS011;1846;51.482;7.224;2023-04-01T10:15:40;11.50;;;9.80;;
3659;SDS011;1846;51.482;7.224;2023-04-01T10:21:39;11.37;;;9.20;;
3659;SDS011;1846;51.482;7.224;2023-04-01T10:30:39;12.02;;;10.38;;
3659;SDS011;1846;51.482;7.224;2023-04-01T10:33:33;13.35;;;10.73;;
3659;SDS011;1846;51.482;7.224;2023-04-01T10:36:35;10.55;;;9.55;;
3659;SDS011;1846;51.482;7.224;2023-04-01T10:39:20;10.05;;;9.05;;
3659;SDS011;1846;51.482;7.224;2023-04-01T10:51:26;9.07;;;8.27;;
3659;SDS011;1846;51.482;7.224;2023-04-01T10:54:30;8.32;;;7.45;;
3659;SDS011;1846;51.482;7.224;2023-04-01T10:57:12;9.85;;;8.85;;
3659;SDS011;1846;51.482;7.224;2023-04-01T11:03:09;8.50;;;7.70;;
3659;SDS011;1846;51.482;7.224;2023-04-01T11:06:13;8.90;;;7.60;;
3659;SDS011;1846;51.482;7.224;2023-04-01T11:15:22;10.25;;;8.63;;
3659;SDS011;1846;51.482;7.224;2023-04-01T11:21:28;9.07;;;7.85;;
3659;SDS011;1846;51.482;7.224;2023-04-01T11:24:25;9.50;;;8.50;;
3659;SDS011;1846;51.482;7.224;2023-04-01T11:27:20;10.20;;;9.20;;
3659;SDS011;1846;51.482;7.224;2023-04-01T11:30:06;10.23;;;9.30;;
3659;SDS011;1846;51.482;7.224;2023-04-01T11:32:53;10.50;;;9.32;;
3659;SDS011;1846;51.482;7.224;2023-04-01T11:35:28;12.55;;;10.50;;
3659;SDS011;1846;51.482;7.224;2023-04-01T11:38:16;10.30;;;9.30;;
3659;SDS011;1846;51.482;7.224;2023-04-01T11:40:51;9.98;;;8.98;;
3659;SDS011;1846;51.482;7.224;2023-04-01T11:43:24;10.02;;;9.02;;
3659;SDS011;1846;51.482;7.224;2023-04-01T11:46:00;10.93;;;9.27;;
3659;SDS011;1846;51.482;7.224;2023-04-01T11:48:38;10.30;;;9.20;;
3659;SDS011;1846;51.482;7.224;2023-04-01T11:51:41;10.45;;;8.75;;
3659;SDS011;1846;51.482;7.224;2023-04-01T11:54:40;11.10;;;10.00;;
3659;SDS011;1846;51.482;7.224;2023-04-01T11:57:28;10.32;;;9.23;;
3659;SDS011;1846;51.482;7.224;2023-04-01T12:00:19;10.25;;;9.25;;
3659;SDS011;1846;51.482;7.224;2023-04-01T12:03:02;10.85;;;9.50;;
3659;SDS011;1846;51.482;7.224;2023-04-01T12:05:44;11.07;;;8.43;;
3659;SDS011;1846;51.482;7.224;2023-04-01T12:08:18;9.80;;;8.80;;
3659;SDS011;1846;51.482;7.224;2023-04-01T12:10:57;10.17;;;8.33;;
3659;SDS011;1846;51.482;7.224;2023-04-01T12:13:34;9.65;;;8.68;;
3659;SDS011;1846;51.482;7.224;2023-04-01T12:16:13;9.43;;;7.90;;
3659;SDS011;1846;51.482;7.224;2023-04-01T12:18:48;10.48;;;9.38;;
3659;SDS011;1846;51.482;7.224;2023-04-01T12:21:22;13.73;;;10.02;;
3659;SDS011;1846;51.482;7.224;2023-04-01T12:24:06;11.60;;;9.50;;
3659;SDS011;1846;51.482;7.224;2023-04-01T12:30:01;9.43;;;8.50;;
3659;SDS011;1846;51.482;7.224;2023-04-01T12:32:41;8.57;;;6.93;;
3659;SDS011;1846;51.482;7.224;2023-04-01T12:35:20;8.95;;;7.55;;
3659;SDS011;1846;51.482;7.224;2023-04-01T12:37:55;8.57;;;7.77;;
3659;SDS011;1846;51.482;7.224;2023-04-01T12:40:45;8.70;;;7.80;;
3659;SDS011;1846;51.482;7.224;2023-04-01T12:46:32;8.80;;;7.88;;
3659;SDS011;1846;51.482;7.224;2023-04-01T12:49:12;9.50;;;8.50;;
3659;SDS011;1846;51.482;7.224;2023-04-01T12:52:04;9.90;;;8.90;;
3659;SDS011;1846;51.482;7.224;2023-04-01T12:57:41;9.88;;;8.88;;
3659;SDS011;1846;51.482;7.224;2023-04-01T13:03:12;9.52;;;8.73;;
3659;SDS011;1846;51.482;7.224;2023-04-01T13:08:48;9.80;;;8.80;;
3659;SDS011;1846;51.482;7.224;2023-04-01T13:11:25;11.10;;;9.80;;
3659;SDS011;1846;51.482;7.224;2023-04-01T13:16:57;10.90;;;9.80;;
3659;SDS011;1846;51.482;7.224;2023-04-01T13:19:35;11.27;;;9.02;;
3659;SDS011;1846;51.482;7.224;2023-04-01T13:22:07;10.85;;;9.85;;
3659;SDS011;1846;51.482;7.224;2023-04-01T13:24:42;10.63;;;9.63;;
3659;SDS011;1846;51.482;7.224;2023-04-01T13:27:17;10.68;;;9.45;;
3659;SDS011;1846;51.482;7.224;2023-04-01T13:29:54;10.93;;;9.20;;
3659;SDS011;1846;51.482;7.224;2023-04-01T13:32:29;9.90;;;8.63;;
3659;SDS011;1846;51.482;7.224;2023-04-01T13:35:10;10.57;;;9.48;;
3659;SDS011;1846;51.482;7.224;2023-04-01T13:37:51;8.70;;;7.90;;
3659;SDS011;1846;51.482;7.224;2023-04-01T13:40:26;9.00;;;8.07;;
3659;SDS011;1846;51.482;7.224;2023-04-01T13:43:08;10.90;;;8.30;;
3659;SDS011;1846;51.482;7.224;2023-04-01T13:45:46;9.00;;;8.10;;
3659;SDS011;1846;51.482;7.224;2023-04-01T13:48:29;11.30;;;8.40;;
3659;SDS011;1846;51.482;7.224;2023-04-01T13:51:17;8.82;;;7.93;;
3659;SDS011;1846;51.482;7.224;2023-04-01T13:54:11;7.73;;;6.93;;
3659;SDS011;1846;51.482;7.224;2023-04-01T13:56:53;7.70;;;7.00;;
3659;SDS011;1846;51.482;7.224;2023-04-01T13:59:33;9.32;;;7.50;;
3659;SDS011;1846;51.482;7.224;2023-04-01T14:02:20;8.30;;;7.50;;
3659;SDS011;1846;51.482;7.224;2023-04-01T14:05:12;7.90;;;7.10;;
3659;SDS011;1846;51.482;7.224;2023-04-01T14:07:55;8.27;;;6.82;;
3659;SDS011;1846;51.482;7.224;2023-04-01T14:10:31;7.93;;;7.13;;
3659;SDS011;1846;51.482;7.224;2023-04-01T14:13:05;8.68;;;7.88;;
3659;SDS011;1846;51.482;7.224;2023-04-01T14:15:43;8.40;;;7.60;;
3659;SDS011;1846;51.482;7.224;2023-04-01T14:18:30;9.50;;;7.70;;
3659;SDS011;1846;51.482;7.224;2023-04-01T14:21:12;8.63;;;7.73;;
3659;SDS011;1846;51.482;7.224;2023-04-01T14:23:57;8.00;;;7.30;;
3659;SDS011;1846;51.482;7.224;2023-04-01T14:29:39;7.82;;;7.00;;
3659;SDS011;1846;51.482;7.224;2023-04-01T14:32:24;8.38;;;7.50;;
3659;SDS011;1846;51.482;7.224;2023-04-01T14:35:10;10.18;;;7.60;;
3659;SDS011;1846;51.482;7.224;2023-04-01T14:38:17;9.93;;;8.13;;
3659;SDS011;1846;51.482;7.224;2023-04-01T14:40:55;10.60;;;8.35;;
3659;SDS011;1846;51.482;7.224;2023-04-01T14:43:34;8.48;;;7.57;;
3659;SDS011;1846;51.482;7.224;2023-04-01T14:46:23;7.45;;;6.70;;
3659;SDS011;1846;51.482;7.224;2023-04-01T14:49:02;7.88;;;7.10;;
3659;SDS011;1846;51.482;7.224;2023-04-01T14:51:41;9.43;;;8.32;;
3659;SDS011;1846;51.482;7.224;2023-04-01T14:54:08;8.70;;;7.85;;
3659;SDS011;1846;51.482;7.224;2023-04-01T14:56:48;10.98;;;8.85;;
3659;SDS011;1846;51.482;7.224;2023-04-01T14:59:25;10.98;;;9.30;;
3659;SDS011;1846;51.482;7.224;2023-04-01T15:01:55;9.48;;;8.57;;
3659;SDS011;1846;51.482;7.224;2023-04-01T15:04:35;11.80;;;10.07;;
3659;SDS011;1846;51.482;7.224;2023-04-01T15:07:21;11.38;;;10.27;;
3659;SDS011;1846;51.482;7.224;2023-04-01T15:10:09;12.93;;;10.75;;
3659;SDS011;1846;51.482;7.224;2023-04-01T15:12:50;12.43;;;11.13;;
3659;SDS011;1846;51.482;7.224;2023-04-01T15:15:29;13.30;;;10.40;;
3659;SDS011;1846;51.482;7.224;2023-04-01T15:18:07;12.45;;;10.80;;
3659;SDS011;1846;51.482;7.224;2023-04-01T15:23:37;11.40;;;10.18;;
3659;SDS011;1846;51.482;7.224;2023-04-01T15:26:19;14.52;;;10.80;;
3659;SDS011;1846;51.482;7.224;2023-04-01T15:31:50;10.50;;;9.50;;
3659;SDS011;1846;51.482;7.224;2023-04-01T15:34:28;11.02;;;9.80;;
3659;SDS011;1846;51.482;7.224;2023-04-01T15:37:01;10.55;;;9.45;;
3659;SDS011;1846;51.482;7.224;2023-04-01T15:39:46;10.98;;;9.88;;
3659;SDS011;1846;51.482;7.224;2023-04-01T15:42:28;12.80;;;10.50;;
3659;SDS011;1846;51.482;7.224;2023-04-01T15:45:12;12.00;;;10.57;;
3659;SDS011;1846;51.482;7.224;2023-04-01T15:47:44;11.73;;;10.52;;
3659;SDS011;1846;51.482;7.224;2023-04-01T15:53:24;10.57;;;9.52;;
3659;SDS011;1846;51.482;7.224;2023-04-01T15:56:10;9.77;;;8.77;;
3659;SDS011;1846;51.482;7.224;2023-04-01T15:58:58;11.20;;;9.82;;
3659;SDS011;1846;51.482;7.224;2023-04-01T16:01:35;10.65;;;9.55;;
3659;SDS011;1846;51.482;7.224;2023-04-01T16:04:15;10.25;;;9.25;;
3659;SDS011;1846;51.482;7.224;2023-04-01T16:06:58;10.40;;;9.30;;
3659;SDS011;1846;51.482;7.224;2023-04-01T16:09:46;11.23;;;9.48;;
3659;SDS011;1846;51.482;7.224;2023-04-01T16:12:31;10.13;;;9.13;;
3659;SDS011;1846;51.482;7.224;2023-04-01T16:15:09;11.27;;;10.17;;
3659;SDS011;1846;51.482;7.224;2023-04-01T16:17:50;11.02;;;9.05;;
3659;SDS011;1846;51.482;7.224;2023-04-01T16:20:35;10.13;;;9.13;;
3659;SDS011;1846;51.482;7.224;2023-04-01T16:23:11;9.27;;;8.43;;
3659;SDS011;1846;51.482;7.224;2023-04-01T16:25:45;8.73;;;7.93;;
3659;SDS011;1846;51.482;7.224;2023-04-01T16:28:21;8.05;;;7.25;;
3659;SDS011;1846;51.482;7.224;2023-04-01T16:30:55;8.15;;;7.38;;
3659;SDS011;1846;51.482;7.224;2023-04-01T16:33:30;8.82;;;8.02;;
3659;SDS011;1846;51.482;7.224;2023-04-01T16:36:07;8.60;;;7.70;;
3659;SDS011;1846;51.482;7.224;2023-04-01T16:38:41;8.10;;;7.40;;
3659;SDS011;1846;51.482;7.224;2023-04-01T16:41:16;8.85;;;7.95;;
3659;SDS011;1846;51.482;7.224;2023-04-01T16:43:47;10.50;;;9.50;;
3659;SDS011;1846;51.482;7.224;2023-04-01T16:46:26;9.40;;;8.40;;
3659;SDS011;1846;51.482;7.224;2023-04-01T16:48:58;12.00;;;9.23;;
3659;SDS011;1846;51.482;7.224;2023-04-01T16:51:32;10.93;;;9.25;;
3659;SDS011;1846;51.482;7.224;2023-04-01T16:54:12;11.23;;;9.52;;
3659;SDS011;1846;51.482;7.224;2023-04-01T16:56:44;11.20;;;10.10;;
3659;SDS011;1846;51.482;7.224;2023-04-01T16:59:21;10.97;;;9.87;;
3659;SDS011;1846;51.482;7.224;2023-04-01T17:01:53;12.07;;;10.80;;
3659;SDS011;1846;51.482;7.224;2023-04-01T17:04:31;11.25;;;9.82;;
3659;SDS011;1846;51.482;7.224;2023-04-01T17:07:11;12.75;;;11.45;;
3659;SDS011;1846;51.482;7.224;2023-04-01T17:10:06;11.65;;;10.55;;
3659;SDS011;1846;51.482;7.224;2023-04-01T17:12:54;11.02;;;9.93;;
3659;SDS011;1846;51.482;7.224;2023-04-01T17:15:39;11.75;;;10.55;;
3659;SDS011;1846;51.482;7.224;2023-04-01T17:18:13;11.55;;;10.27;;
3659;SDS011;1846;51.482;7.224;2023-04-01T17:20:48;12.80;;;11.50;;
3659;SDS011;1846;51.482;7.224;2023-04-01T17:23:21;12.50;;;11.30;;
3659;SDS011;1846;51.482;7.224;2023-04-01T17:26:00;13.05;;;11.55;;
3659;SDS011;1846;51.482;7.224;2023-04-01T17:31:46;12.95;;;11.65;;
3659;SDS011;1846;51.482;7.224;2023-04-01T17:34:30;13.57;;;12.18;;
3659;SDS011;1846;51.482;7.224;2023-04-01T17:37:22;12.68;;;11.00;;
3659;SDS011;1846;51.482;7.224;2023-04-01T17:40:03;14.00;;;11.73;;
3659;SDS011;1846;51.482;7.224;2023-04-01T17:42:42;12.95;;;11.65;;